sensor_id;sensor_type;location;lat;lon;timestamp;pressure;altitude;pressure_sealevel;temperature;humidity
64967;BME280;51710;38.732;-121.358;2023-06-14T00:01:49;100713.88;;;30.40;41.21
64967;BME280;51710;38.732;-121.358;2023-06-14T00:04:15;100710.56;;;30.43;41.27
64967;BME280;51710;38.732;-121.358;2023-06-14T00:06:43;100708.78;;;30.57;41.04
64967;BME280;51710;38.732;-121.358;2023-06-14T00:09:11;100697.19;;;30.60;40.59
64967;BME280;51710;38.732;-121.358;2023-06-14T00:11:44;100700.00;;;30.55;40.79
64967;BME280;51710;38.732;-121.358;2023-06-14T00:14:10;100707.69;;;30.53;40.92
64967;BME280;51710;38.732;-121.358;2023-06-14T00:16:37;100695.84;;;30.58;40.67
64967;BME280;51710;38.732;-121.358;2023-06-14T00:19:04;100701.84;;;30.60;40.40
64967;BME280;51710;38.732;-121.358;2023-06-14T00:21:31;100693.47;;;30.46;40.35
64967;BME280;51710;38.732;-121.358;2023-06-14T00:23:59;100699.69;;;30.28;40.69
64967;BME280;51710;38.732;-121.358;2023-06-14T00:26:25;100681.59;;;30.17;41.13
64967;BME280;51710;38.732;-121.358;2023-06-14T00:28:54;100679.44;;;30.14;41.21
64967;BME280;51710;38.732;-121.358;2023-06-14T00:31:22;100678.31;;;30.15;41.55
64967;BME280;51710;38.732;-121.358;2023-06-14T00:33:49;100674.72;;;30.20;41.57
64967;BME280;51710;38.732;-121.358;2023-06-14T00:36:15;100670.84;;;30.26;41.53
64967;BME280;51710;38.732;-121.358;2023-06-14T00:38:42;100668.56;;;30.33;41.69
64967;BME280;51710;38.732;-121.358;2023-06-14T00:41:09;100667.44;;;30.39;41.40
64967;BME280;51710;38.732;-121.358;2023-06-14T00:43:35;100661.97;;;30.34;41.09
64967;BME280;51710;38.732;-121.358;2023-06-14T00:46:01;100652.97;;;30.28;41.22
64967;BME280;51710;38.732;-121.358;2023-06-14T00:48:28;100660.13;;;30.24;41.37
64967;BME280;51710;38.732;-121.358;2023-06-14T00:50:57;100651.66;;;30.16;41.56
64967;BME280;51710;38.732;-121.358;2023-06-14T00:53:28;100650.34;;;30.08;41.62
64967;BME280;51710;38.732;-121.358;2023-06-14T00:55:55;100644.41;;;29.96;41.93
64967;BME280;51710;38.732;-121.358;2023-06-14T00:58:22;100636.75;;;29.93;41.91
64967;BME280;51710;38.732;-121.358;2023-06-14T01:00:48;100638.13;;;29.91;42.31
64967;BME280;51710;38.732;-121.358;2023-06-14T01:03:15;100630.72;;;29.91;42.27
64967;BME280;51710;38.732;-121.358;2023-06-14T01:05:49;100630.16;;;29.89;41.84
64967;BME280;51710;38.732;-121.358;2023-06-14T01:08:28;100633.28;;;29.77;42.20
64967;BME280;51710;38.732;-121.358;2023-06-14T01:11:07;100626.19;;;29.66;41.76
64967;BME280;51710;38.732;-121.358;2023-06-14T01:13:43;100622.19;;;29.49;42.07
64967;BME280;51710;38.732;-121.358;2023-06-14T01:16:11;100620.56;;;29.48;42.25
64967;BME280;51710;38.732;-121.358;2023-06-14T01:18:38;100618.59;;;29.48;42.37
64967;BME280;51710;38.732;-121.358;2023-06-14T01:21:04;100622.78;;;29.41;42.44
64967;BME280;51710;38.732;-121.358;2023-06-14T01:23:34;100614.88;;;29.34;42.53
64967;BME280;51710;38.732;-121.358;2023-06-14T01:26:01;100623.13;;;29.29;42.51
64967;BME280;51710;38.732;-121.358;2023-06-14T01:28:29;100620.69;;;29.23;42.62
64967;BME280;51710;38.732;-121.358;2023-06-14T01:31:01;100622.38;;;29.14;42.55
64967;BME280;51710;38.732;-121.358;2023-06-14T01:33:32;100619.09;;;29.02;42.73
64967;BME280;51710;38.732;-121.358;2023-06-14T01:35:59;100626.28;;;28.93;42.62
64967;BME280;51710;38.732;-121.358;2023-06-14T01:38:27;100627.13;;;28.88;42.81
64967;BME280;51710;38.732;-121.358;2023-06-14T01:40:56;100634.53;;;28.88;42.84
64967;BME280;51710;38.732;-121.358;2023-06-14T01:43:25;100651.81;;;28.88;43.29
64967;BME280;51710;38.732;-121.358;2023-06-14T01:45:54;100639.75;;;28.84;43.40
64967;BME280;51710;38.732;-121.358;2023-06-14T01:48:21;100637.28;;;28.83;43.38
64967;BME280;51710;38.732;-121.358;2023-06-14T01:50:49;100644.97;;;28.75;43.43
64967;BME280;51710;38.732;-121.358;2023-06-14T01:53:16;100649.63;;;28.75;43.31
64967;BME280;51710;38.732;-121.358;2023-06-14T01:55:42;100663.38;;;28.80;43.12
64967;BME280;51710;38.732;-121.358;2023-06-14T01:58:10;100662.28;;;28.71;43.57
64967;BME280;51710;38.732;-121.358;2023-06-14T02:00:37;100662.84;;;28.68;43.17
64967;BME280;51710;38.732;-121.358;2023-06-14T02:03:03;100672.41;;;28.75;43.15
64967;BME280;51710;38.732;-121.358;2023-06-14T02:05:30;100680.63;;;28.75;43.15
64967;BME280;51710;38.732;-121.358;2023-06-14T02:07:56;100675.97;;;28.76;43.30
64967;BME280;51710;38.732;-121.358;2023-06-14T02:10:23;100679.81;;;28.75;43.83
64967;BME280;51710;38.732;-121.358;2023-06-14T02:12:49;100683.38;;;28.70;43.85
64967;BME280;51710;38.732;-121.358;2023-06-14T02:15:15;100685.59;;;28.63;43.41
64967;BME280;51710;38.732;-121.358;2023-06-14T02:17:46;100699.84;;;28.50;42.90
64967;BME280;51710;38.732;-121.358;2023-06-14T02:20:19;100699.31;;;28.38;43.44
64967;BME280;51710;38.732;-121.358;2023-06-14T02:22:46;100703.97;;;28.28;43.51
64967;BME280;51710;38.732;-121.358;2023-06-14T02:25:12;100701.47;;;28.16;43.41
64967;BME280;51710;38.732;-121.358;2023-06-14T02:27:38;100699.84;;;28.10;44.03
64967;BME280;51710;38.732;-121.358;2023-06-14T02:30:06;100706.41;;;28.04;44.18
64967;BME280;51710;38.732;-121.358;2023-06-14T02:32:33;100706.41;;;28.04;44.32
64967;BME280;51710;38.732;-121.358;2023-06-14T02:35:02;100713.00;;;27.98;44.34
64967;BME280;51710;38.732;-121.358;2023-06-14T02:37:29;100713.22;;;27.92;44.31
64967;BME280;51710;38.732;-121.358;2023-06-14T02:39:56;100718.94;;;27.85;44.23
64967;BME280;51710;38.732;-121.358;2023-06-14T02:42:22;100718.09;;;27.80;44.02
64967;BME280;51710;38.732;-121.358;2023-06-14T02:44:48;100712.63;;;27.69;44.20
64967;BME280;51710;38.732;-121.358;2023-06-14T02:47:19;100699.72;;;27.60;44.03
64967;BME280;51710;38.732;-121.358;2023-06-14T02:49:46;100696.97;;;27.55;44.66
64967;BME280;51710;38.732;-121.358;2023-06-14T02:52:15;100693.13;;;27.51;44.53
64967;BME280;51710;38.732;-121.358;2023-06-14T02:54:42;100698.03;;;27.44;44.83
64967;BME280;51710;38.732;-121.358;2023-06-14T02:57:08;100679.38;;;27.31;45.13
64967;BME280;51710;38.732;-121.358;2023-06-14T02:59:35;100678.47;;;27.20;45.19
64967;BME280;51710;38.732;-121.358;2023-06-14T03:02:01;100675.97;;;27.09;45.17
64967;BME280;51710;38.732;-121.358;2023-06-14T03:04:28;100681.69;;;27.02;45.38
64967;BME280;51710;38.732;-121.358;2023-06-14T03:06:55;100682.44;;;26.93;45.54
64967;BME280;51710;38.732;-121.358;2023-06-14T03:09:22;100686.22;;;26.82;45.78
64967;BME280;51710;38.732;-121.358;2023-06-14T03:11:48;100682.84;;;26.70;46.01
64967;BME280;51710;38.732;-121.358;2023-06-14T03:14:14;100674.84;;;26.58;46.10
64967;BME280;51710;38.732;-121.358;2023-06-14T03:16:43;100686.50;;;26.48;46.16
64967;BME280;51710;38.732;-121.358;2023-06-14T03:19:09;100686.75;;;26.42;46.49
64967;BME280;51710;38.732;-121.358;2023-06-14T03:21:36;100686.69;;;26.37;46.70
64967;BME280;51710;38.732;-121.358;2023-06-14T03:24:03;100692.13;;;26.32;46.72
64967;BME280;51710;38.732;-121.358;2023-06-14T03:26:29;100683.91;;;26.27;46.95
64967;BME280;51710;38.732;-121.358;2023-06-14T03:28:56;100673.66;;;26.12;47.17
64967;BME280;51710;38.732;-121.358;2023-06-14T03:31:22;100680.91;;;26.02;47.25
64967;BME280;51710;38.732;-121.358;2023-06-14T03:33:49;100685.44;;;25.91;47.51
64967;BME280;51710;38.732;-121.358;2023-06-14T03:36:15;100701.22;;;25.84;47.89
64967;BME280;51710;38.732;-121.358;2023-06-14T03:38:43;100696.19;;;25.71;47.90
64967;BME280;51710;38.732;-121.358;2023-06-14T03:41:09;100697.13;;;25.60;48.18
64967;BME280;51710;38.732;-121.358;2023-06-14T03:43:36;100704.13;;;25.51;47.96
64967;BME280;51710;38.732;-121.358;2023-06-14T03:46:02;100711.66;;;25.44;48.26
64967;BME280;51710;38.732;-121.358;2023-06-14T03:48:28;100717.75;;;25.29;48.42
64967;BME280;51710;38.732;-121.358;2023-06-14T03:50:54;100726.63;;;25.20;48.49
64967;BME280;51710;38.732;-121.358;2023-06-14T03:53:21;100736.88;;;25.13;48.64
64967;BME280;51710;38.732;-121.358;2023-06-14T03:55:50;100724.59;;;25.10;48.77
64967;BME280;51710;38.732;-121.358;2023-06-14T03:58:18;100720.91;;;25.00;48.91
64967;BME280;51710;38.732;-121.358;2023-06-14T04:00:44;100725.06;;;24.86;48.92
64967;BME280;51710;38.732;-121.358;2023-06-14T04:03:11;100730.38;;;24.76;49.33
64967;BME280;51710;38.732;-121.358;2023-06-14T04:05:41;100727.94;;;24.63;49.60
64967;BME280;51710;38.732;-121.358;2023-06-14T04:08:08;100711.84;;;24.44;49.42
64967;BME280;51710;38.732;-121.358;2023-06-14T04:10:35;100694.50;;;24.34;49.61
64967;BME280;51710;38.732;-121.358;2023-06-14T04:13:01;100700.06;;;24.22;50.05
64967;BME280;51710;38.732;-121.358;2023-06-14T04:15:27;100702.94;;;24.16;50.21
64967;BME280;51710;38.732;-121.358;2023-06-14T04:17:54;100721.91;;;24.11;50.27
64967;BME280;51710;38.732;-121.358;2023-06-14T04:20:24;100735.09;;;24.02;50.17
64967;BME280;51710;38.732;-121.358;2023-06-14T04:22:51;100743.59;;;23.94;50.34
64967;BME280;51710;38.732;-121.358;2023-06-14T04:25:18;100757.63;;;23.86;50.63
64967;BME280;51710;38.732;-121.358;2023-06-14T04:27:44;100751.00;;;23.82;50.54
64967;BME280;51710;38.732;-121.358;2023-06-14T04:30:13;100759.66;;;23.79;50.67
64967;BME280;51710;38.732;-121.358;2023-06-14T04:32:39;100768.31;;;23.76;50.86
64967;BME280;51710;38.732;-121.358;2023-06-14T04:35:08;100771.25;;;23.75;50.99
64967;BME280;51710;38.732;-121.358;2023-06-14T04:37:34;100773.97;;;23.75;50.86
64967;BME280;51710;38.732;-121.358;2023-06-14T04:40:06;100773.16;;;23.74;51.07
64967;BME280;51710;38.732;-121.358;2023-06-14T04:42:33;100780.72;;;23.72;51.06
64967;BME280;51710;38.732;-121.358;2023-06-14T04:45:02;100782.28;;;23.68;51.36
64967;BME280;51710;38.732;-121.358;2023-06-14T04:47:29;100786.53;;;23.64;51.43
64967;BME280;51710;38.732;-121.358;2023-06-14T04:49:57;100781.34;;;23.63;51.34
64967;BME280;51710;38.732;-121.358;2023-06-14T04:52:23;100782.56;;;23.55;51.19
64967;BME280;51710;38.732;-121.358;2023-06-14T04:54:52;100787.75;;;23.45;51.45
64967;BME280;51710;38.732;-121.358;2023-06-14T04:57:20;100797.94;;;23.38;51.77
64967;BME280;51710;38.732;-121.358;2023-06-14T04:59:48;100797.03;;;23.32;51.63
64967;BME280;51710;38.732;-121.358;2023-06-14T05:02:17;100790.25;;;23.23;51.76
64967;BME280;51710;38.732;-121.358;2023-06-14T05:04:43;100793.69;;;23.19;51.82
64967;BME280;51710;38.732;-121.358;2023-06-14T05:07:09;100783.78;;;23.13;51.84
64967;BME280;51710;38.732;-121.358;2023-06-14T05:09:36;100795.34;;;23.08;52.23
64967;BME280;51710;38.732;-121.358;2023-06-14T05:12:03;100791.91;;;23.01;52.16
64967;BME280;51710;38.732;-121.358;2023-06-14T05:14:29;100789.91;;;22.97;52.33
64967;BME280;51710;38.732;-121.358;2023-06-14T05:16:56;100784.97;;;22.94;52.38
64967;BME280;51710;38.732;-121.358;2023-06-14T05:19:23;100782.72;;;22.91;52.55
64967;BME280;51710;38.732;-121.358;2023-06-14T05:21:49;100791.31;;;22.88;52.49
64967;BME280;51710;38.732;-121.358;2023-06-14T05:24:15;100786.25;;;22.80;52.58
64967;BME280;51710;38.732;-121.358;2023-06-14T05:26:43;100800.31;;;22.77;53.08
64967;BME280;51710;38.732;-121.358;2023-06-14T05:29:10;100797.00;;;22.75;52.76
64967;BME280;51710;38.732;-121.358;2023-06-14T05:31:37;100792.72;;;22.67;52.75
64967;BME280;51710;38.732;-121.358;2023-06-14T05:34:04;100782.09;;;22.66;52.89
64967;BME280;51710;38.732;-121.358;2023-06-14T05:36:30;100780.56;;;22.58;52.88
64967;BME280;51710;38.732;-121.358;2023-06-14T05:38:56;100780.03;;;22.50;53.01
64967;BME280;51710;38.732;-121.358;2023-06-14T05:41:27;100784.16;;;22.41;53.15
64967;BME280;51710;38.732;-121.358;2023-06-14T05:43:56;100769.66;;;22.35;53.27
64967;BME280;51710;38.732;-121.358;2023-06-14T05:46:23;100752.16;;;22.31;53.39
64967;BME280;51710;38.732;-121.358;2023-06-14T05:48:53;100734.31;;;22.23;53.34
64967;BME280;51710;38.732;-121.358;2023-06-14T05:51:23;100722.63;;;22.11;53.66
64967;BME280;51710;38.732;-121.358;2023-06-14T05:53:50;100738.41;;;22.03;54.08
64967;BME280;51710;38.732;-121.358;2023-06-14T05:56:17;100750.75;;;21.99;54.13
64967;BME280;51710;38.732;-121.358;2023-06-14T05:58:44;100765.03;;;21.94;54.27
64967;BME280;51710;38.732;-121.358;2023-06-14T06:01:11;100766.53;;;21.90;54.23
64967;BME280;51710;38.732;-121.358;2023-06-14T06:03:39;100755.56;;;21.85;54.48
64967;BME280;51710;38.732;-121.358;2023-06-14T06:06:05;100772.06;;;21.84;54.70
64967;BME280;51710;38.732;-121.358;2023-06-14T06:08:33;100784.19;;;21.81;54.61
64967;BME280;51710;38.732;-121.358;2023-06-14T06:10:59;100785.69;;;21.77;54.50
64967;BME280;51710;38.732;-121.358;2023-06-14T06:13:27;100787.66;;;21.70;54.46
64967;BME280;51710;38.732;-121.358;2023-06-14T06:15:53;100795.63;;;21.65;54.57
64967;BME280;51710;38.732;-121.358;2023-06-14T06:18:19;100791.50;;;21.63;54.89
64967;BME280;51710;38.732;-121.358;2023-06-14T06:20:45;100793.59;;;21.61;54.79
64967;BME280;51710;38.732;-121.358;2023-06-14T06:23:13;100800.31;;;21.58;55.05
64967;BME280;51710;38.732;-121.358;2023-06-14T06:25:39;100804.28;;;21.56;55.02
64967;BME280;51710;38.732;-121.358;2023-06-14T06:28:06;100809.56;;;21.51;55.06
64967;BME280;51710;38.732;-121.358;2023-06-14T06:30:32;100813.53;;;21.48;55.15
64967;BME280;51710;38.732;-121.358;2023-06-14T06:32:58;100824.38;;;21.48;55.09
64967;BME280;51710;38.732;-121.358;2023-06-14T06:35:25;100817.09;;;21.49;55.16
64967;BME280;51710;38.732;-121.358;2023-06-14T06:37:51;100820.50;;;21.44;55.19
64967;BME280;51710;38.732;-121.358;2023-06-14T06:40:18;100815.97;;;21.38;55.06
64967;BME280;51710;38.732;-121.358;2023-06-14T06:42:45;100822.28;;;21.32;54.99
64967;BME280;51710;38.732;-121.358;2023-06-14T06:45:11;100822.34;;;21.25;55.19
64967;BME280;51710;38.732;-121.358;2023-06-14T06:47:37;100809.84;;;21.24;55.64
64967;BME280;51710;38.732;-121.358;2023-06-14T06:50:03;100799.84;;;21.25;55.39
64967;BME280;51710;38.732;-121.358;2023-06-14T06:52:30;100794.88;;;21.22;55.61
64967;BME280;51710;38.732;-121.358;2023-06-14T06:54:56;100790.50;;;21.21;55.52
64967;BME280;51710;38.732;-121.358;2023-06-14T06:57:23;100786.13;;;21.20;55.70
64967;BME280;51710;38.732;-121.358;2023-06-14T06:59:49;100784.50;;;21.19;55.40
64967;BME280;51710;38.732;-121.358;2023-06-14T07:02:16;100780.56;;;21.15;55.47
64967;BME280;51710;38.732;-121.358;2023-06-14T07:04:43;100776.28;;;21.07;55.66
64967;BME280;51710;38.732;-121.358;2023-06-14T07:07:09;100770.91;;;21.01;55.56
64967;BME280;51710;38.732;-121.358;2023-06-14T07:09:35;100748.84;;;20.97;55.81
64967;BME280;51710;38.732;-121.358;2023-06-14T07:12:02;100741.41;;;20.93;55.98
64967;BME280;51710;38.732;-121.358;2023-06-14T07:14:28;100722.44;;;20.93;56.14
64967;BME280;51710;38.732;-121.358;2023-06-14T07:16:55;100721.47;;;20.87;55.97
64967;BME280;51710;38.732;-121.358;2023-06-14T07:19:22;100698.81;;;20.82;56.25
64967;BME280;51710;38.732;-121.358;2023-06-14T07:21:48;100691.97;;;20.79;56.39
64967;BME280;51710;38.732;-121.358;2023-06-14T07:24:14;100694.31;;;20.76;56.49
64967;BME280;51710;38.732;-121.358;2023-06-14T07:26:41;100698.97;;;20.69;56.48
64967;BME280;51710;38.732;-121.358;2023-06-14T07:29:07;100719.00;;;20.61;56.66
64967;BME280;51710;38.732;-121.358;2023-06-14T07:31:33;100733.81;;;20.59;56.48
64967;BME280;51710;38.732;-121.358;2023-06-14T07:33:59;100732.16;;;20.58;56.76
64967;BME280;51710;38.732;-121.358;2023-06-14T07:36:26;100698.41;;;20.60;56.66
64967;BME280;51710;38.732;-121.358;2023-06-14T07:38:52;100671.72;;;20.64;56.69
64967;BME280;51710;38.732;-121.358;2023-06-14T07:41:18;100653.81;;;20.63;56.71
64967;BME280;51710;38.732;-121.358;2023-06-14T07:43:44;100642.19;;;20.62;56.67
64967;BME280;51710;38.732;-121.358;2023-06-14T07:46:11;100634.97;;;20.56;56.88
64967;BME280;51710;38.732;-121.358;2023-06-14T07:48:37;100639.84;;;20.48;57.04
64967;BME280;51710;38.732;-121.358;2023-06-14T07:51:03;100654.53;;;20.34;56.96
64967;BME280;51710;38.732;-121.358;2023-06-14T07:53:30;100663.38;;;20.23;57.56
64967;BME280;51710;38.732;-121.358;2023-06-14T07:55:56;100664.28;;;20.17;58.02
64967;BME280;51710;38.732;-121.358;2023-06-14T07:58:22;100664.28;;;20.17;57.95
64967;BME280;51710;38.732;-121.358;2023-06-14T08:00:49;100674.25;;;20.16;57.93
64967;BME280;51710;38.732;-121.358;2023-06-14T08:03:15;100690.91;;;20.13;57.93
64967;BME280;51710;38.732;-121.358;2023-06-14T08:05:41;100721.28;;;20.08;58.25
64967;BME280;51710;38.732;-121.358;2023-06-14T08:08:08;100731.50;;;20.06;58.21
64967;BME280;51710;38.732;-121.358;2023-06-14T08:10:34;100741.72;;;20.04;58.10
64967;BME280;51710;38.732;-121.358;2023-06-14T08:13:00;100742.53;;;20.05;58.39
64967;BME280;51710;38.732;-121.358;2023-06-14T08:15:27;100743.13;;;20.07;58.33
64967;BME280;51710;38.732;-121.358;2023-06-14T08:17:53;100751.03;;;20.08;58.50
64967;BME280;51710;38.732;-121.358;2023-06-14T08:20:19;100744.59;;;20.09;58.47
64967;BME280;51710;38.732;-121.358;2023-06-14T08:22:46;100744.97;;;20.13;58.40
64967;BME280;51710;38.732;-121.358;2023-06-14T08:25:13;100729.59;;;20.13;58.46
64967;BME280;51710;38.732;-121.358;2023-06-14T08:27:40;100724.38;;;20.12;58.44
64967;BME280;51710;38.732;-121.358;2023-06-14T08:30:07;100723.78;;;20.10;58.35
64967;BME280;51710;38.732;-121.358;2023-06-14T08:32:34;100720.09;;;20.04;58.08
64967;BME280;51710;38.732;-121.358;2023-06-14T08:35:00;100728.59;;;20.01;58.53
64967;BME280;51710;38.732;-121.358;2023-06-14T08:37:26;100723.25;;;19.95;58.64
64967;BME280;51710;38.732;-121.358;2023-06-14T08:39:52;100720.16;;;19.91;58.73
64967;BME280;51710;38.732;-121.358;2023-06-14T08:42:20;100710.22;;;19.85;58.83
64967;BME280;51710;38.732;-121.358;2023-06-14T08:44:47;100708.59;;;19.78;59.07
64967;BME280;51710;38.732;-121.358;2023-06-14T08:47:14;100715.69;;;19.72;59.11
64967;BME280;51710;38.732;-121.358;2023-06-14T08:49:46;100699.94;;;19.69;59.41
64967;BME280;51710;38.732;-121.358;2023-06-14T08:52:19;100691.19;;;19.67;59.30
64967;BME280;51710;38.732;-121.358;2023-06-14T08:54:47;100679.56;;;19.67;59.03
64967;BME280;51710;38.732;-121.358;2023-06-14T08:57:15;100691.66;;;19.64;59.21
64967;BME280;51710;38.732;-121.358;2023-06-14T08:59:47;100697.91;;;19.58;59.36
64967;BME280;51710;38.732;-121.358;2023-06-14T09:02:15;100695.41;;;19.57;59.59
64967;BME280;51710;38.732;-121.358;2023-06-14T09:04:44;100692.31;;;19.53;59.68
64967;BME280;51710;38.732;-121.358;2023-06-14T09:07:11;100696.31;;;19.51;59.53
64967;BME280;51710;38.732;-121.358;2023-06-14T09:09:39;100701.88;;;19.49;59.75
64967;BME280;51710;38.732;-121.358;2023-06-14T09:12:12;100714.19;;;19.45;59.98
64967;BME280;51710;38.732;-121.358;2023-06-14T09:14:39;100720.44;;;19.39;60.02
64967;BME280;51710;38.732;-121.358;2023-06-14T09:17:07;100717.13;;;19.37;60.12
64967;BME280;51710;38.732;-121.358;2023-06-14T09:19:34;100733.31;;;19.37;60.20
64967;BME280;51710;38.732;-121.358;2023-06-14T09:22:03;100737.50;;;19.33;60.16
64967;BME280;51710;38.732;-121.358;2023-06-14T09:24:30;100749.56;;;19.31;60.18
64967;BME280;51710;38.732;-121.358;2023-06-14T09:26:56;100758.50;;;19.31;60.35
64967;BME280;51710;38.732;-121.358;2023-06-14T09:29:23;100759.34;;;19.32;60.40
64967;BME280;51710;38.732;-121.358;2023-06-14T09:31:50;100761.00;;;19.33;60.68
64967;BME280;51710;38.732;-121.358;2023-06-14T09:34:16;100742.91;;;19.33;60.47
64967;BME280;51710;38.732;-121.358;2023-06-14T09:36:46;100748.31;;;19.33;60.40
64967;BME280;51710;38.732;-121.358;2023-06-14T09:39:17;100745.84;;;19.32;60.43
64967;BME280;51710;38.732;-121.358;2023-06-14T09:41:44;100749.56;;;19.31;60.44
64967;BME280;51710;38.732;-121.358;2023-06-14T09:44:11;100748.72;;;19.30;60.51
64967;BME280;51710;38.732;-121.358;2023-06-14T09:46:40;100754.13;;;19.30;60.73
64967;BME280;51710;38.732;-121.358;2023-06-14T09:49:08;100759.34;;;19.32;60.53
64967;BME280;51710;38.732;-121.358;2023-06-14T09:51:36;100760.56;;;19.29;60.64
64967;BME280;51710;38.732;-121.358;2023-06-14T09:54:09;100767.81;;;19.29;60.65
64967;BME280;51710;38.732;-121.358;2023-06-14T09:56:41;100765.75;;;19.24;60.75
64967;BME280;51710;38.732;-121.358;2023-06-14T09:59:10;100752.06;;;19.19;60.87
64967;BME280;51710;38.732;-121.358;2023-06-14T10:01:45;100750.81;;;19.15;60.93
64967;BME280;51710;38.732;-121.358;2023-06-14T10:04:13;100743.78;;;19.14;61.05
64967;BME280;51710;38.732;-121.358;2023-06-14T10:06:43;100745.66;;;19.07;61.05
64967;BME280;51710;38.732;-121.358;2023-06-14T10:09:12;100745.88;;;18.99;61.05
64967;BME280;51710;38.732;-121.358;2023-06-14T10:11:40;100732.19;;;18.94;61.28
64967;BME280;51710;38.732;-121.358;2023-06-14T10:14:15;100731.34;;;18.93;61.39
64967;BME280;51710;38.732;-121.358;2023-06-14T10:17:08;100734.25;;;18.92;61.34
64967;BME280;51710;38.732;-121.358;2023-06-14T10:19:42;100735.53;;;18.89;61.63
64967;BME280;51710;38.732;-121.358;2023-06-14T10:22:17;100738.63;;;18.86;61.74
64967;BME280;51710;38.732;-121.358;2023-06-14T10:24:45;100733.88;;;18.82;61.52
64967;BME280;51710;38.732;-121.358;2023-06-14T10:27:15;100733.69;;;18.77;61.69
64967;BME280;51710;38.732;-121.358;2023-06-14T10:32:20;100730.56;;;18.73;61.94
64967;BME280;51710;38.732;-121.358;2023-06-14T10:34:59;100738.47;;;18.68;62.06
64967;BME280;51710;38.732;-121.358;2023-06-14T10:37:26;100744.91;;;18.61;62.17
64967;BME280;51710;38.732;-121.358;2023-06-14T10:39:52;100734.97;;;18.55;62.52
64967;BME280;51710;38.732;-121.358;2023-06-14T10:42:19;100739.31;;;18.49;62.49
64967;BME280;51710;38.732;-121.358;2023-06-14T10:44:57;100731.25;;;18.43;62.37
64967;BME280;51710;38.732;-121.358;2023-06-14T10:47:32;100738.03;;;18.39;62.58
64967;BME280;51710;38.732;-121.358;2023-06-14T10:50:11;100742.19;;;18.35;62.63
64967;BME280;51710;38.732;-121.358;2023-06-14T10:52:41;100739.47;;;18.35;62.99
64967;BME280;51710;38.732;-121.358;2023-06-14T10:55:16;100746.56;;;18.36;62.96
64967;BME280;51710;38.732;-121.358;2023-06-14T10:57:49;100743.66;;;18.37;63.03
64967;BME280;51710;38.732;-121.358;2023-06-14T11:00:27;100743.25;;;18.40;62.80
64967;BME280;51710;38.732;-121.358;2023-06-14T11:05:29;100743.47;;;18.45;62.86
64967;BME280;51710;38.732;-121.358;2023-06-14T11:10:40;100747.56;;;18.35;62.86
64967;BME280;51710;38.732;-121.358;2023-06-14T11:13:07;100767.50;;;18.34;63.02
64967;BME280;51710;38.732;-121.358;2023-06-14T11:15:36;100764.16;;;18.32;63.05
64967;BME280;51710;38.732;-121.358;2023-06-14T11:18:05;100761.47;;;18.32;62.88
64967;BME280;51710;38.732;-121.358;2023-06-14T11:20:34;100756.50;;;18.29;63.24
64967;BME280;51710;38.732;-121.358;2023-06-14T11:23:04;100752.13;;;18.28;62.96
64967;BME280;51710;38.732;-121.358;2023-06-14T11:25:31;100746.94;;;18.26;62.90
64967;BME280;51710;38.732;-121.358;2023-06-14T11:27:58;100750.66;;;18.19;63.42
64967;BME280;51710;38.732;-121.358;2023-06-14T11:30:27;100753.56;;;18.11;63.30
64967;BME280;51710;38.732;-121.358;2023-06-14T11:32:54;100750.25;;;18.02;63.38
64967;BME280;51710;38.732;-121.358;2023-06-14T11:35:24;100756.44;;;17.96;63.31
64967;BME280;51710;38.732;-121.358;2023-06-14T11:37:55;100755.41;;;17.97;63.59
64967;BME280;51710;38.732;-121.358;2023-06-14T11:40:27;100748.78;;;17.99;63.80
64967;BME280;51710;38.732;-121.358;2023-06-14T11:43:00;100747.34;;;17.97;63.50
64967;BME280;51710;38.732;-121.358;2023-06-14T11:45:27;100744.84;;;17.95;63.59
64967;BME280;51710;38.732;-121.358;2023-06-14T11:47:59;100728.44;;;17.90;63.55
64967;BME280;51710;38.732;-121.358;2023-06-14T11:50:26;100731.13;;;17.84;63.92
64967;BME280;51710;38.732;-121.358;2023-06-14T11:52:57;100742.09;;;17.82;63.87
64967;BME280;51710;38.732;-121.358;2023-06-14T11:55:26;100735.44;;;17.78;63.85
64967;BME280;51710;38.732;-121.358;2023-06-14T11:57:55;100732.97;;;17.70;63.97
64967;BME280;51710;38.732;-121.358;2023-06-14T12:00:25;100730.25;;;17.64;64.17
64967;BME280;51710;38.732;-121.358;2023-06-14T12:02:56;100737.06;;;17.60;64.41
64967;BME280;51710;38.732;-121.358;2023-06-14T12:05:23;100737.06;;;17.53;64.46
64967;BME280;51710;38.732;-121.358;2023-06-14T12:07:50;100732.47;;;17.47;64.54
64967;BME280;51710;38.732;-121.358;2023-06-14T12:10:19;100724.53;;;17.39;64.86
64967;BME280;51710;38.732;-121.358;2023-06-14T12:12:45;100736.09;;;17.33;64.99
64967;BME280;51710;38.732;-121.358;2023-06-14T12:15:12;100737.72;;;17.28;65.21
64967;BME280;51710;38.732;-121.358;2023-06-14T12:17:39;100739.38;;;17.22;65.36
64967;BME280;51710;38.732;-121.358;2023-06-14T12:20:10;100732.72;;;17.18;65.89
64967;BME280;51710;38.732;-121.358;2023-06-14T12:22:53;100737.47;;;17.16;65.77
64967;BME280;51710;38.732;-121.358;2023-06-14T12:28:14;100737.91;;;17.20;65.37
64967;BME280;51710;38.732;-121.358;2023-06-14T12:30:39;100736.47;;;17.17;65.54
64967;BME280;51710;38.732;-121.358;2023-06-14T12:33:06;100736.47;;;17.17;65.74
64967;BME280;51710;38.732;-121.358;2023-06-14T12:35:33;100730.03;;;17.18;65.80